sensor_id;sensor_type;location;lat;lon;timestamp;P1;durP1;ratioP1;P2;durP2;ratioP2
51499;SDS011;39101;53.478;6.158;2023-05-07T00:02:24;35.05;;;25.42;;
51499;SDS011;39101;53.478;6.158;2023-05-07T00:04:50;34.70;;;26.35;;
51499;SDS011;39101;53.478;6.158;2023-05-07T00:07:17;35.92;;;28.20;;
51499;SDS011;39101;53.478;6.158;2023-05-07T00:09:43;37.25;;;28.40;;
51499;SDS011;39101;53.478;6.158;2023-05-07T00:12:09;33.35;;;26.42;;
51499;SDS011;39101;53.478;6.158;2023-05-07T00:14:35;39.30;;;28.25;;
51499;SDS011;39101;53.478;6.158;2023-05-07T00:17:01;35.05;;;24.95;;
51499;SDS011;39101;53.478;6.158;2023-05-07T00:19:26;33.42;;;25.92;;
51499;SDS011;39101;53.478;6.158;2023-05-07T00:21:52;31.52;;;24.25;;
51499;SDS011;39101;53.478;6.158;2023-05-07T00:24:19;38.85;;;27.02;;
51499;SDS011;39101;53.478;6.158;2023-05-07T00:26:45;39.15;;;28.90;;
51499;SDS011;39101;53.478;6.158;2023-05-07T00:29:10;41.55;;;28.35;;
51499;SDS011;39101;53.478;6.158;2023-05-07T00:31:36;36.78;;;27.55;;
51499;SDS011;39101;53.478;6.158;2023-05-07T00:34:01;39.72;;;29.27;;
51499;SDS011;39101;53.478;6.158;2023-05-07T00:36:28;41.17;;;28.70;;
51499;SDS011;39101;53.478;6.158;2023-05-07T00:38:54;36.30;;;27.65;;
51499;SDS011;39101;53.478;6.158;2023-05-07T00:41:20;39.55;;;28.55;;
51499;SDS011;39101;53.478;6.158;2023-05-07T00:43:46;32.70;;;26.23;;
51499;SDS011;39101;53.478;6.158;2023-05-07T00:46:12;42.58;;;30.08;;
51499;SDS011;39101;53.478;6.158;2023-05-07T00:48:38;40.80;;;30.67;;
51499;SDS011;39101;53.478;6.158;2023-05-07T00:51:05;38.15;;;29.98;;
51499;SDS011;39101;53.478;6.158;2023-05-07T00:53:30;43.42;;;32.22;;
51499;SDS011;39101;53.478;6.158;2023-05-07T00:55:56;43.58;;;30.60;;
51499;SDS011;39101;53.478;6.158;2023-05-07T00:58:22;42.30;;;31.40;;
51499;SDS011;39101;53.478;6.158;2023-05-07T01:00:49;39.13;;;29.42;;
51499;SDS011;39101;53.478;6.158;2023-05-07T01:03:15;42.15;;;31.85;;
51499;SDS011;39101;53.478;6.158;2023-05-07T01:05:40;39.45;;;30.00;;
51499;SDS011;39101;53.478;6.158;2023-05-07T01:08:08;47.35;;;32.38;;
51499;SDS011;39101;53.478;6.158;2023-05-07T01:10:34;42.22;;;31.48;;
51499;SDS011;39101;53.478;6.158;2023-05-07T01:12:59;39.35;;;31.13;;
51499;SDS011;39101;53.478;6.158;2023-05-07T01:15:26;46.25;;;33.05;;
51499;SDS011;39101;53.478;6.158;2023-05-07T01:17:52;45.55;;;32.97;;
51499;SDS011;39101;53.478;6.158;2023-05-07T01:20:18;52.17;;;34.60;;
51499;SDS011;39101;53.478;6.158;2023-05-07T01:22:44;43.95;;;35.63;;
51499;SDS011;39101;53.478;6.158;2023-05-07T01:25:10;45.28;;;33.40;;
51499;SDS011;39101;53.478;6.158;2023-05-07T01:27:36;45.08;;;32.83;;
51499;SDS011;39101;53.478;6.158;2023-05-07T01:30:05;45.60;;;33.50;;
51499;SDS011;39101;53.478;6.158;2023-05-07T01:32:33;51.25;;;36.55;;
51499;SDS011;39101;53.478;6.158;2023-05-07T01:35:05;45.63;;;32.67;;
51499;SDS011;39101;53.478;6.158;2023-05-07T01:37:35;48.92;;;35.08;;
51499;SDS011;39101;53.478;6.158;2023-05-07T01:40:01;57.00;;;35.38;;
51499;SDS011;39101;53.478;6.158;2023-05-07T01:42:28;58.30;;;38.22;;
51499;SDS011;39101;53.478;6.158;2023-05-07T01:44:54;51.38;;;37.15;;
51499;SDS011;39101;53.478;6.158;2023-05-07T01:47:20;56.10;;;36.88;;
51499;SDS011;39101;53.478;6.158;2023-05-07T01:49:47;49.40;;;35.75;;
51499;SDS011;39101;53.478;6.158;2023-05-07T01:52:12;59.58;;;41.08;;
51499;SDS011;39101;53.478;6.158;2023-05-07T01:54:38;56.20;;;38.85;;
51499;SDS011;39101;53.478;6.158;2023-05-07T01:57:04;65.60;;;42.80;;
51499;SDS011;39101;53.478;6.158;2023-05-07T01:59:29;53.70;;;38.85;;
51499;SDS011;39101;53.478;6.158;2023-05-07T02:01:55;54.13;;;38.15;;
51499;SDS011;39101;53.478;6.158;2023-05-07T02:04:21;55.58;;;39.42;;
51499;SDS011;39101;53.478;6.158;2023-05-07T02:06:46;66.05;;;43.70;;
51499;SDS011;39101;53.478;6.158;2023-05-07T02:09:13;57.78;;;40.00;;
51499;SDS011;39101;53.478;6.158;2023-05-07T02:11:39;58.03;;;41.10;;
51499;SDS011;39101;53.478;6.158;2023-05-07T02:14:05;66.38;;;43.13;;
51499;SDS011;39101;53.478;6.158;2023-05-07T02:16:31;55.95;;;39.60;;
51499;SDS011;39101;53.478;6.158;2023-05-07T02:18:56;54.88;;;38.28;;
51499;SDS011;39101;53.478;6.158;2023-05-07T02:21:23;63.75;;;41.28;;
51499;SDS011;39101;53.478;6.158;2023-05-07T02:23:51;61.20;;;42.65;;
51499;SDS011;39101;53.478;6.158;2023-05-07T02:26:17;66.63;;;44.20;;
51499;SDS011;39101;53.478;6.158;2023-05-07T02:28:43;63.78;;;41.25;;
51499;SDS011;39101;53.478;6.158;2023-05-07T02:31:09;64.72;;;43.00;;
51499;SDS011;39101;53.478;6.158;2023-05-07T02:33:34;64.00;;;43.47;;
51499;SDS011;39101;53.478;6.158;2023-05-07T02:36:10;71.03;;;44.78;;
51499;SDS011;39101;53.478;6.158;2023-05-07T02:38:37;61.22;;;41.65;;
51499;SDS011;39101;53.478;6.158;2023-05-07T02:41:02;68.60;;;44.30;;
51499;SDS011;39101;53.478;6.158;2023-05-07T02:43:28;61.33;;;41.38;;
51499;SDS011;39101;53.478;6.158;2023-05-07T02:46:03;73.45;;;46.28;;
51499;SDS011;39101;53.478;6.158;2023-05-07T02:48:30;68.25;;;45.65;;
51499;SDS011;39101;53.478;6.158;2023-05-07T02:50:56;78.22;;;47.67;;
51499;SDS011;39101;53.478;6.158;2023-05-07T02:53:22;66.53;;;44.00;;
51499;SDS011;39101;53.478;6.158;2023-05-07T02:55:51;70.50;;;47.70;;
51499;SDS011;39101;53.478;6.158;2023-05-07T02:58:23;82.85;;;48.50;;
51499;SDS011;39101;53.478;6.158;2023-05-07T03:00:49;58.53;;;41.95;;
51499;SDS011;39101;53.478;6.158;2023-05-07T03:03:15;74.82;;;48.20;;
51499;SDS011;39101;53.478;6.158;2023-05-07T03:05:41;66.28;;;45.63;;
51499;SDS011;39101;53.478;6.158;2023-05-07T03:08:07;75.18;;;48.72;;
51499;SDS011;39101;53.478;6.158;2023-05-07T03:10:33;73.50;;;46.20;;
51499;SDS011;39101;53.478;6.158;2023-05-07T03:12:58;75.50;;;48.63;;
51499;SDS011;39101;53.478;6.158;2023-05-07T03:15:24;88.63;;;52.42;;
51499;SDS011;39101;53.478;6.158;2023-05-07T03:17:50;84.40;;;50.22;;
51499;SDS011;39101;53.478;6.158;2023-05-07T03:20:16;81.97;;;50.30;;
51499;SDS011;39101;53.478;6.158;2023-05-07T03:22:41;77.90;;;48.97;;
51499;SDS011;39101;53.478;6.158;2023-05-07T03:25:07;77.63;;;49.97;;
51499;SDS011;39101;53.478;6.158;2023-05-07T03:27:34;80.97;;;51.45;;
51499;SDS011;39101;53.478;6.158;2023-05-07T03:29:59;74.90;;;48.47;;
51499;SDS011;39101;53.478;6.158;2023-05-07T03:32:25;77.50;;;50.13;;
51499;SDS011;39101;53.478;6.158;2023-05-07T03:34:51;77.05;;;53.05;;
51499;SDS011;39101;53.478;6.158;2023-05-07T03:37:17;74.40;;;47.75;;
51499;SDS011;39101;53.478;6.158;2023-05-07T03:39:43;77.70;;;50.10;;
51499;SDS011;39101;53.478;6.158;2023-05-07T03:42:09;80.22;;;50.58;;
51499;SDS011;39101;53.478;6.158;2023-05-07T03:44:35;83.15;;;48.88;;
51499;SDS011;39101;53.478;6.158;2023-05-07T03:47:03;65.80;;;45.33;;
51499;SDS011;39101;53.478;6.158;2023-05-07T03:49:29;82.03;;;52.25;;
51499;SDS011;39101;53.478;6.158;2023-05-07T03:51:55;81.28;;;50.40;;
51499;SDS011;39101;53.478;6.158;2023-05-07T03:54:21;73.60;;;45.78;;
51499;SDS011;39101;53.478;6.158;2023-05-07T03:56:47;86.03;;;50.20;;
51499;SDS011;39101;53.478;6.158;2023-05-07T03:59:13;84.70;;;52.20;;
51499;SDS011;39101;53.478;6.158;2023-05-07T04:01:39;77.72;;;47.55;;
51499;SDS011;39101;53.478;6.158;2023-05-07T04:04:05;85.18;;;50.50;;
51499;SDS011;39101;53.478;6.158;2023-05-07T04:06:30;70.13;;;47.90;;
51499;SDS011;39101;53.478;6.158;2023-05-07T04:08:56;72.50;;;46.97;;
51499;SDS011;39101;53.478;6.158;2023-05-07T04:11:22;77.10;;;48.00;;
51499;SDS011;39101;53.478;6.158;2023-05-07T04:13:48;84.82;;;50.55;;
51499;SDS011;39101;53.478;6.158;2023-05-07T04:16:13;67.65;;;46.35;;
51499;SDS011;39101;53.478;6.158;2023-05-07T04:18:39;79.63;;;48.65;;
51499;SDS011;39101;53.478;6.158;2023-05-07T04:21:05;83.53;;;53.25;;
51499;SDS011;39101;53.478;6.158;2023-05-07T04:23:38;91.18;;;51.35;;
51499;SDS011;39101;53.478;6.158;2023-05-07T04:26:04;78.93;;;51.13;;
51499;SDS011;39101;53.478;6.158;2023-05-07T04:28:30;72.50;;;47.28;;
51499;SDS011;39101;53.478;6.158;2023-05-07T04:30:55;83.13;;;48.28;;
51499;SDS011;39101;53.478;6.158;2023-05-07T04:33:21;85.25;;;50.25;;
51499;SDS011;39101;53.478;6.158;2023-05-07T04:35:47;88.68;;;50.50;;
51499;SDS011;39101;53.478;6.158;2023-05-07T04:38:12;87.80;;;50.03;;
51499;SDS011;39101;53.478;6.158;2023-05-07T04:40:38;76.95;;;46.40;;
51499;SDS011;39101;53.478;6.158;2023-05-07T04:43:04;80.22;;;49.03;;
51499;SDS011;39101;53.478;6.158;2023-05-07T04:45:29;79.95;;;49.08;;
51499;SDS011;39101;53.478;6.158;2023-05-07T04:47:55;95.13;;;54.03;;
51499;SDS011;39101;53.478;6.158;2023-05-07T04:50:21;90.10;;;52.42;;
51499;SDS011;39101;53.478;6.158;2023-05-07T04:52:49;102.00;;;56.33;;
51499;SDS011;39101;53.478;6.158;2023-05-07T04:55:15;91.38;;;53.58;;
51499;SDS011;39101;53.478;6.158;2023-05-07T04:57:40;97.40;;;54.70;;
51499;SDS011;39101;53.478;6.158;2023-05-07T05:00:06;79.28;;;51.40;;
51499;SDS011;39101;53.478;6.158;2023-05-07T05:02:34;79.10;;;48.63;;
51499;SDS011;39101;53.478;6.158;2023-05-07T05:05:00;71.90;;;45.67;;
51499;SDS011;39101;53.478;6.158;2023-05-07T05:07:29;69.10;;;45.42;;
51499;SDS011;39101;53.478;6.158;2023-05-07T05:09:55;62.55;;;42.58;;
51499;SDS011;39101;53.478;6.158;2023-05-07T05:12:22;70.95;;;44.85;;
51499;SDS011;39101;53.478;6.158;2023-05-07T05:14:48;81.78;;;48.13;;
51499;SDS011;39101;53.478;6.158;2023-05-07T05:17:14;82.63;;;49.50;;
51499;SDS011;39101;53.478;6.158;2023-05-07T05:19:39;73.78;;;47.08;;
51499;SDS011;39101;53.478;6.158;2023-05-07T05:22:06;74.65;;;46.90;;
51499;SDS011;39101;53.478;6.158;2023-05-07T05:24:31;64.73;;;43.73;;
51499;SDS011;39101;53.478;6.158;2023-05-07T05:26:57;73.13;;;45.53;;
51499;SDS011;39101;53.478;6.158;2023-05-07T05:29:25;69.10;;;45.83;;
51499;SDS011;39101;53.478;6.158;2023-05-07T05:31:50;77.20;;;49.05;;
51499;SDS011;39101;53.478;6.158;2023-05-07T05:34:16;78.80;;;48.53;;
51499;SDS011;39101;53.478;6.158;2023-05-07T05:36:44;87.50;;;51.30;;
51499;SDS011;39101;53.478;6.158;2023-05-07T05:39:10;93.88;;;54.08;;
51499;SDS011;39101;53.478;6.158;2023-05-07T05:41:36;89.13;;;53.10;;
51499;SDS011;39101;53.478;6.158;2023-05-07T05:44:02;81.83;;;49.93;;
51499;SDS011;39101;53.478;6.158;2023-05-07T05:46:27;85.63;;;51.97;;
51499;SDS011;39101;53.478;6.158;2023-05-07T05:48:53;94.83;;;52.57;;
51499;SDS011;39101;53.478;6.158;2023-05-07T05:51:20;85.20;;;50.60;;
51499;SDS011;39101;53.478;6.158;2023-05-07T05:53:46;91.17;;;52.50;;
51499;SDS011;39101;53.478;6.158;2023-05-07T05:56:12;85.30;;;51.37;;
51499;SDS011;39101;53.478;6.158;2023-05-07T05:58:38;77.63;;;51.53;;
51499;SDS011;39101;53.478;6.158;2023-05-07T06:01:03;86.97;;;53.00;;
51499;SDS011;39101;53.478;6.158;2023-05-07T06:03:30;86.73;;;53.00;;
51499;SDS011;39101;53.478;6.158;2023-05-07T06:05:57;93.57;;;54.20;;
51499;SDS011;39101;53.478;6.158;2023-05-07T06:08:23;96.97;;;55.33;;
51499;SDS011;39101;53.478;6.158;2023-05-07T06:10:48;89.07;;;50.23;;
51499;SDS011;39101;53.478;6.158;2023-05-07T06:13:15;94.50;;;55.23;;
51499;SDS011;39101;53.478;6.158;2023-05-07T06:15:40;91.10;;;52.93;;
51499;SDS011;39101;53.478;6.158;2023-05-07T06:18:06;73.23;;;50.87;;
51499;SDS011;39101;53.478;6.158;2023-05-07T06:20:32;85.87;;;53.70;;
51499;SDS011;39101;53.478;6.158;2023-05-07T06:22:57;80.85;;;53.90;;
51499;SDS011;39101;53.478;6.158;2023-05-07T06:25:23;89.10;;;57.33;;
51499;SDS011;39101;53.478;6.158;2023-05-07T06:27:48;79.70;;;50.67;;
51499;SDS011;39101;53.478;6.158;2023-05-07T06:30:14;88.57;;;58.07;;
51499;SDS011;39101;53.478;6.158;2023-05-07T06:32:40;92.18;;;56.08;;
51499;SDS011;39101;53.478;6.158;2023-05-07T06:35:06;84.73;;;55.70;;
51499;SDS011;39101;53.478;6.158;2023-05-07T06:37:32;87.97;;;55.30;;
51499;SDS011;39101;53.478;6.158;2023-05-07T06:39:58;86.70;;;54.40;;
51499;SDS011;39101;53.478;6.158;2023-05-07T06:42:23;90.17;;;56.33;;
51499;SDS011;39101;53.478;6.158;2023-05-07T06:44:49;85.27;;;54.13;;
51499;SDS011;39101;53.478;6.158;2023-05-07T06:47:14;90.33;;;54.33;;
51499;SDS011;39101;53.478;6.158;2023-05-07T06:49:40;88.90;;;54.33;;
51499;SDS011;39101;53.478;6.158;2023-05-07T06:52:06;82.17;;;55.47;;
51499;SDS011;39101;53.478;6.158;2023-05-07T06:54:32;81.60;;;54.20;;
51499;SDS011;39101;53.478;6.158;2023-05-07T06:56:57;78.53;;;52.30;;
51499;SDS011;39101;53.478;6.158;2023-05-07T06:59:23;77.80;;;52.87;;
51499;SDS011;39101;53.478;6.158;2023-05-07T07:01:49;75.03;;;51.47;;
51499;SDS011;39101;53.478;6.158;2023-05-07T07:04:14;84.97;;;57.40;;
51499;SDS011;39101;53.478;6.158;2023-05-07T07:06:40;79.60;;;53.67;;
51499;SDS011;39101;53.478;6.158;2023-05-07T07:09:06;80.40;;;52.07;;
51499;SDS011;39101;53.478;6.158;2023-05-07T07:11:32;77.30;;;53.47;;
51499;SDS011;39101;53.478;6.158;2023-05-07T07:13:57;75.47;;;51.47;;
51499;SDS011;39101;53.478;6.158;2023-05-07T07:16:24;70.07;;;49.83;;
51499;SDS011;39101;53.478;6.158;2023-05-07T07:18:49;75.57;;;51.63;;
51499;SDS011;39101;53.478;6.158;2023-05-07T07:21:15;67.50;;;46.13;;
51499;SDS011;39101;53.478;6.158;2023-05-07T07:23:41;75.27;;;50.23;;
51499;SDS011;39101;53.478;6.158;2023-05-07T07:26:07;73.53;;;49.60;;
51499;SDS011;39101;53.478;6.158;2023-05-07T07:28:32;73.63;;;49.43;;
51499;SDS011;39101;53.478;6.158;2023-05-07T07:30:58;73.97;;;50.60;;
51499;SDS011;39101;53.478;6.158;2023-05-07T07:33:24;73.57;;;51.23;;
51499;SDS011;39101;53.478;6.158;2023-05-07T07:35:49;73.40;;;49.13;;
51499;SDS011;39101;53.478;6.158;2023-05-07T07:38:15;68.23;;;47.10;;
51499;SDS011;39101;53.478;6.158;2023-05-07T07:40:40;76.87;;;49.93;;
51499;SDS011;39101;53.478;6.158;2023-05-07T07:43:06;71.27;;;45.60;;
51499;SDS011;39101;53.478;6.158;2023-05-07T07:45:32;68.00;;;44.20;;
51499;SDS011;39101;53.478;6.158;2023-05-07T07:47:58;60.77;;;40.63;;
51499;SDS011;39101;53.478;6.158;2023-05-07T07:50:23;63.70;;;41.80;;
51499;SDS011;39101;53.478;6.158;2023-05-07T07:52:49;64.60;;;43.57;;
51499;SDS011;39101;53.478;6.158;2023-05-07T07:55:14;71.40;;;46.07;;
51499;SDS011;39101;53.478;6.158;2023-05-07T07:57:46;75.53;;;51.10;;
51499;SDS011;39101;53.478;6.158;2023-05-07T08:00:11;71.57;;;47.87;;
51499;SDS011;39101;53.478;6.158;2023-05-07T08:02:37;84.13;;;52.37;;
51499;SDS011;39101;53.478;6.158;2023-05-07T08:05:03;71.60;;;48.60;;
51499;SDS011;39101;53.478;6.158;2023-05-07T08:07:29;87.00;;;53.97;;
51499;SDS011;39101;53.478;6.158;2023-05-07T08:09:55;80.83;;;53.77;;
51499;SDS011;39101;53.478;6.158;2023-05-07T08:12:21;80.70;;;53.93;;
51499;SDS011;39101;53.478;6.158;2023-05-07T08:14:46;78.60;;;53.13;;
51499;SDS011;39101;53.478;6.158;2023-05-07T08:17:12;80.73;;;55.70;;
51499;SDS011;39101;53.478;6.158;2023-05-07T08:19:40;80.20;;;55.23;;
51499;SDS011;39101;53.478;6.158;2023-05-07T08:22:06;88.33;;;58.10;;
51499;SDS011;39101;53.478;6.158;2023-05-07T08:24:32;78.53;;;53.00;;
51499;SDS011;39101;53.478;6.158;2023-05-07T08:26:58;80.80;;;54.57;;
51499;SDS011;39101;53.478;6.158;2023-05-07T08:29:23;85.87;;;56.37;;
51499;SDS011;39101;53.478;6.158;2023-05-07T08:31:49;80.53;;;55.03;;
51499;SDS011;39101;53.478;6.158;2023-05-07T08:34:15;88.93;;;58.33;;
51499;SDS011;39101;53.478;6.158;2023-05-07T08:36:40;81.87;;;56.00;;
51499;SDS011;39101;53.478;6.158;2023-05-07T08:39:11;77.50;;;53.30;;
51499;SDS011;39101;53.478;6.158;2023-05-07T08:41:37;78.40;;;52.13;;
51499;SDS011;39101;53.478;6.158;2023-05-07T08:44:03;73.50;;;53.93;;
51499;SDS011;39101;53.478;6.158;2023-05-07T08:46:36;69.35;;;51.75;;
51499;SDS011;39101;53.478;6.158;2023-05-07T08:49:01;77.43;;;52.80;;
51499;SDS011;39101;53.478;6.158;2023-05-07T08:51:27;70.07;;;52.17;;
51499;SDS011;39101;53.478;6.158;2023-05-07T08:53:53;72.13;;;52.77;;
51499;SDS011;39101;53.478;6.158;2023-05-07T08:56:19;71.77;;;51.00;;
51499;SDS011;39101;53.478;6.158;2023-05-07T08:58:45;68.65;;;50.25;;
51499;SDS011;39101;53.478;6.158;2023-05-07T09:01:15;72.75;;;50.83;;
51499;SDS011;39101;53.478;6.158;2023-05-07T09:06:09;66.95;;;48.30;;
51499;SDS011;39101;53.478;6.158;2023-05-07T09:08:35;77.93;;;52.55;;
51499;SDS011;39101;53.478;6.158;2023-05-07T09:11:01;75.40;;;51.65;;
51499;SDS011;39101;53.478;6.158;2023-05-07T09:13:27;68.10;;;50.35;;
51499;SDS011;39101;53.478;6.158;2023-05-07T09:15:54;68.40;;;49.88;;
51499;SDS011;39101;53.478;6.158;2023-05-07T09:18:20;67.47;;;49.15;;
51499;SDS011;39101;53.478;6.158;2023-05-07T09:20:45;74.30;;;50.97;;
51499;SDS011;39101;53.478;6.158;2023-05-07T09:23:11;70.38;;;52.58;;
51499;SDS011;39101;53.478;6.158;2023-05-07T09:25:37;76.50;;;52.90;;
51499;SDS011;39101;53.478;6.158;2023-05-07T09:28:04;69.15;;;50.13;;
51499;SDS011;39101;53.478;6.158;2023-05-07T09:30:32;72.72;;;53.83;;
51499;SDS011;39101;53.478;6.158;2023-05-07T09:32:59;73.40;;;52.50;;
51499;SDS011;39101;53.478;6.158;2023-05-07T09:35:26;66.07;;;49.90;;
51499;SDS011;39101;53.478;6.158;2023-05-07T09:37:53;71.97;;;51.63;;
51499;SDS011;39101;53.478;6.158;2023-05-07T09:40:23;68.75;;;51.65;;
51499;SDS011;39101;53.478;6.158;2023-05-07T09:42:51;74.60;;;53.50;;
51499;SDS011;39101;53.478;6.158;2023-05-07T09:45:26;66.75;;;50.53;;
51499;SDS011;39101;53.478;6.158;2023-05-07T09:47:56;65.47;;;50.03;;
51499;SDS011;39101;53.478;6.158;2023-05-07T09:50:30;68.88;;;52.30;;
51499;SDS011;39101;53.478;6.158;2023-05-07T09:53:01;69.97;;;51.47;;
51499;SDS011;39101;53.478;6.158;2023-05-07T09:55:26;63.50;;;51.00;;
51499;SDS011;39101;53.478;6.158;2023-05-07T09:57:53;65.28;;;51.08;;
51499;SDS011;39101;53.478;6.158;2023-05-07T10:00:20;63.35;;;50.08;;
51499;SDS011;39101;53.478;6.158;2023-05-07T10:02:48;58.05;;;45.08;;
51499;SDS011;39101;53.478;6.158;2023-05-07T10:05:16;61.00;;;46.58;;
51499;SDS011;39101;53.478;6.158;2023-05-07T10:07:46;62.30;;;46.50;;
51499;SDS011;39101;53.478;6.158;2023-05-07T10:10:12;55.92;;;44.83;;
51499;SDS011;39101;53.478;6.158;2023-05-07T10:12:39;54.90;;;46.33;;
51499;SDS011;39101;53.478;6.158;2023-05-07T10:15:06;54.40;;;42.75;;
51499;SDS011;39101;53.478;6.158;2023-05-07T10:17:36;54.25;;;42.00;;
51499;SDS011;39101;53.478;6.158;2023-05-07T10:20:05;50.40;;;39.85;;
51499;SDS011;39101;53.478;6.158;2023-05-07T10:22:41;46.33;;;36.47;;
51499;SDS011;39101;53.478;6.158;2023-05-07T10:25:13;44.15;;;37.40;;
51499;SDS011;39101;53.478;6.158;2023-05-07T10:27:40;44.70;;;36.47;;
51499;SDS011;39101;53.478;6.158;2023-05-07T10:30:14;44.00;;;36.15;;
51499;SDS011;39101;53.478;6.158;2023-05-07T10:32:53;39.35;;;33.30;;
51499;SDS011;39101;53.478;6.158;2023-05-07T10:35:23;43.53;;;34.85;;
51499;SDS011;39101;53.478;6.158;2023-05-07T10:37:51;42.10;;;34.80;;
51499;SDS011;39101;53.478;6.158;2023-05-07T10:40:17;47.50;;;37.95;;
51499;SDS011;39101;53.478;6.158;2023-05-07T10:42:58;46.63;;;37.58;;
51499;SDS011;39101;53.478;6.158;2023-05-07T10:45:26;54.20;;;42.92;;
51499;SDS011;39101;53.478;6.158;2023-05-07T10:48:05;41.08;;;33.25;;
51499;SDS011;39101;53.478;6.158;2023-05-07T10:50:39;47.55;;;39.55;;
51499;SDS011;39101;53.478;6.158;2023-05-07T10:55:49;45.45;;;39.08;;
51499;SDS011;39101;53.478;6.158;2023-05-07T10:58:26;48.08;;;40.25;;
51499;SDS011;39101;53.478;6.158;2023-05-07T11:01:00;45.03;;;39.75;;
51499;SDS011;39101;53.478;6.158;2023-05-07T11:03:26;47.55;;;42.13;;
51499;SDS011;39101;53.478;6.158;2023-05-07T11:06:12;50.08;;;44.20;;
51499;SDS011;39101;53.478;6.158;2023-05-07T11:14:08;42.30;;;37.72;;
51499;SDS011;39101;53.478;6.158;2023-05-07T11:16:34;40.00;;;35.70;;
51499;SDS011;39101;53.478;6.158;2023-05-07T11:19:01;41.58;;;35.85;;
51499;SDS011;39101;53.478;6.158;2023-05-07T11:21:39;38.40;;;32.50;;
51499;SDS011;39101;53.478;6.158;2023-05-07T11:24:06;34.42;;;30.75;;
51499;SDS011;39101;53.478;6.158;2023-05-07T11:26:56;34.90;;;29.88;;
51499;SDS011;39101;53.478;6.158;2023-05-07T11:29:21;31.27;;;27.95;;
51499;SDS011;39101;53.478;6.158;2023-05-07T11:31:51;30.15;;;26.98;;
51499;SDS011;39101;53.478;6.158;2023-05-07T11:34:27;31.85;;;25.77;;
51499;SDS011;39101;53.478;6.158;2023-05-07T11:36:52;31.05;;;26.25;;
51499;SDS011;39101;53.478;6.158;2023-05-07T11:39:28;31.00;;;25.92;;
51499;SDS011;39101;53.478;6.158;2023-05-07T11:42:01;27.42;;;23.90;;
51499;SDS011;39101;53.478;6.158;2023-05-07T11:44:43;28.05;;;25.05;;
51499;SDS011;39101;53.478;6.158;2023-05-07T11:47:11;26.77;;;23.88;;
51499;SDS011;39101;53.478;6.158;2023-05-07T11:49:42;26.88;;;24.00;;
51499;SDS011;39101;53.478;6.158;2023-05-07T11:52:07;27.27;;;24.48;;
51499;SDS011;39101;53.478;6.158;2023-05-07T11:54:36;26.05;;;23.30;;
51499;SDS011;39101;53.478;6.158;2023-05-07T11:57:02;24.67;;;22.08;;
51499;SDS011;39101;53.478;6.158;2023-05-07T11:59:28;26.70;;;23.95;;
51499;SDS011;39101;53.478;6.158;2023-05-07T12:01:57;26.30;;;22.77;;
51499;SDS011;39101;53.478;6.158;2023-05-07T12:04:24;25.48;;;22.77;;
51499;SDS011;39101;53.478;6.158;2023-05-07T12:06:53;24.80;;;22.13;;
51499;SDS011;39101;53.478;6.158;2023-05-07T12:09:20;23.65;;;21.10;;
51499;SDS011;39101;53.478;6.158;2023-05-07T12:11:46;25.65;;;22.73;;
51499;SDS011;39101;53.478;6.158;2023-05-07T12:14:12;26.10;;;22.63;;
51499;SDS011;39101;53.478;6.158;2023-05-07T12:16:39;25.42;;;22.77;;
51499;SDS011;39101;53.478;6.158;2023-05-07T12:19:05;24.75;;;22.23;;
51499;SDS011;39101;53.478;6.158;2023-05-07T12:21:33;24.30;;;21.73;;
51499;SDS011;39101;53.478;6.158;2023-05-07T12:24:00;24.75;;;22.15;;
51499;SDS011;39101;53.478;6.158;2023-05-07T12:26:26;23.48;;;21.08;;
51499;SDS011;39101;53.478;6.158;2023-05-07T12:28:52;24.52;;;21.92;;
51499;SDS011;39101;53.478;6.158;2023-05-07T12:31:18;25.60;;;22.98;;
51499;SDS011;39101;53.478;6.158;2023-05-07T12:33:43;24.33;;;21.83;;
51499;SDS011;39101;53.478;6.158;2023-05-07T12:36:12;24.98;;;22.33;;
51499;SDS011;39101;53.478;6.158;2023-05-07T12:38:38;24.05;;;21.55;;
51499;SDS011;39101;53.478;6.158;2023-05-07T12:41:06;21.85;;;19.70;;
51499;SDS011;39101;53.478;6.158;2023-05-07T12:43:32;25.88;;;22.92;;
51499;SDS011;39101;53.478;6.158;2023-05-07T12:46:05;21.85;;;19.52;;
51499;SDS011;39101;53.478;6.158;2023-05-07T12:48:32;24.17;;;21.67;;
51499;SDS011;39101;53.478;6.158;2023-05-07T12:51:00;23.00;;;20.52;;
51499;SDS011;39101;53.478;6.158;2023-05-07T12:53:27;22.02;;;19.75;;
51499;SDS011;39101;53.478;6.158;2023-05-07T12:55:58;22.85;;;20.10;;
51499;SDS011;39101;53.478;6.158;2023-05-07T12:58:28;21.92;;;18.35;;
51499;SDS011;39101;53.478;6.158;2023-05-07T13:00:56;22.48;;;20.05;;
51499;SDS011;39101;53.478;6.158;2023-05-07T13:03:31;20.15;;;18.08;;
51499;SDS011;39101;53.478;6.158;2023-05-07T13:05:59;22.75;;;20.40;;
51499;SDS011;39101;53.478;6.158;2023-05-07T13:08:26;22.77;;;20.48;;
51499;SDS011;39101;53.478;6.158;2023-05-07T13:10:57;25.55;;;22.08;;
51499;SDS011;39101;53.478;6.158;2023-05-07T13:13:24;27.60;;;24.98;;
51499;SDS011;39101;53.478;6.158;2023-05-07T13:15:50;28.25;;;25.52;;
51499;SDS011;39101;53.478;6.158;2023-05-07T13:18:16;26.70;;;24.00;;
51499;SDS011;39101;53.478;6.158;2023-05-07T13:20:42;26.98;;;24.17;;
51499;SDS011;39101;53.478;6.158;2023-05-07T13:23:08;27.50;;;24.90;;
51499;SDS011;39101;53.478;6.158;2023-05-07T13:25:33;25.63;;;23.02;;
51499;SDS011;39101;53.478;6.158;2023-05-07T13:27:59;24.75;;;22.25;;
51499;SDS011;39101;53.478;6.158;2023-05-07T13:30:25;22.23;;;20.00;;
51499;SDS011;39101;53.478;6.158;2023-05-07T13:32:51;21.27;;;19.05;;
51499;SDS011;39101;53.478;6.158;2023-05-07T13:35:20;23.80;;;21.45;;
51499;SDS011;39101;53.478;6.158;2023-05-07T13:37:46;23.50;;;21.25;;
51499;SDS011;39101;53.478;6.158;2023-05-07T13:40:13;24.65;;;22.17;;
51499;SDS011;39101;53.478;6.158;2023-05-07T13:42:38;24.58;;;22.00;;
51499;SDS011;39101;53.478;6.158;2023-05-07T13:45:04;26.38;;;23.73;;
51499;SDS011;39101;53.478;6.158;2023-05-07T13:47:31;25.92;;;23.42;;
51499;SDS011;39101;53.478;6.158;2023-05-07T13:49:56;28.75;;;26.02;;
51499;SDS011;39101;53.478;6.158;2023-05-07T13:52:22;27.98;;;25.30;;
51499;SDS011;39101;53.478;6.158;2023-05-07T13:54:47;28.63;;;25.77;;
51499;SDS011;39101;53.478;6.158;2023-05-07T13:57:13;29.38;;;26.58;;
51499;SDS011;39101;53.478;6.158;2023-05-07T13:59:40;32.25;;;29.15;;
51499;SDS011;39101;53.478;6.158;2023-05-07T14:02:06;33.13;;;29.85;;
51499;SDS011;39101;53.478;6.158;2023-05-07T14:04:31;33.50;;;30.40;;
51499;SDS011;39101;53.478;6.158;2023-05-07T14:06:57;31.83;;;28.83;;
51499;SDS011;39101;53.478;6.158;2023-05-07T14:09:22;28.35;;;25.60;;
51499;SDS011;39101;53.478;6.158;2023-05-07T14:11:48;26.30;;;23.88;;
51499;SDS011;39101;53.478;6.158;2023-05-07T14:14:16;29.83;;;27.13;;
51499;SDS011;39101;53.478;6.158;2023-05-07T14:16:42;28.02;;;25.42;;
51499;SDS011;39101;53.478;6.158;2023-05-07T14:19:08;26.42;;;23.98;;
51499;SDS011;39101;53.478;6.158;2023-05-07T14:21:35;27.08;;;24.38;;
51499;SDS011;39101;53.478;6.158;2023-05-07T14:24:00;25.80;;;23.38;;
51499;SDS011;39101;53.478;6.158;2023-05-07T14:26:26;25.13;;;22.70;;
51499;SDS011;39101;53.478;6.158;2023-05-07T14:28:52;23.70;;;21.40;;
51499;SDS011;39101;53.478;6.158;2023-05-07T14:31:20;26.02;;;23.58;;